sensor_id;sensor_type;location;lat;lon;timestamp;pressure;altitude;pressure_sealevel;temperature;humidity
14293;BME280;62290;59.420;17.842;2023-07-29T00:01:32;99955.69;;;24.90;43.04
14293;BME280;62290;59.420;17.842;2023-07-29T00:04:00;99905.28;;;24.56;42.67
14293;BME280;62290;59.420;17.842;2023-07-29T00:06:28;99951.81;;;24.84;43.13
14293;BME280;62290;59.420;17.842;2023-07-29T00:08:56;99959.72;;;24.86;42.86
14293;BME280;62290;59.420;17.842;2023-07-29T00:11:24;99952.63;;;24.85;43.33
14293;BME280;62290;59.420;17.842;2023-07-29T00:13:52;99947.59;;;24.82;43.12
14293;BME280;62290;59.420;17.842;2023-07-29T00:16:22;99954.81;;;24.81;43.38
14293;BME280;62290;59.420;17.842;2023-07-29T00:18:50;99953.13;;;24.80;43.28
14293;BME280;62290;59.420;17.842;2023-07-29T00:21:18;99948.00;;;24.77;43.52
14293;BME280;62290;59.420;17.842;2023-07-29T00:23:46;99937.34;;;24.68;43.42
14293;BME280;62290;59.420;17.842;2023-07-29T00:26:15;99947.34;;;24.75;43.22
14293;BME280;62290;59.420;17.842;2023-07-29T00:28:43;99942.13;;;24.74;43.42
14293;BME280;62290;59.420;17.842;2023-07-29T00:31:11;99936.88;;;24.72;43.47
14293;BME280;62290;59.420;17.842;2023-07-29T00:33:40;99933.81;;;24.67;43.21
14293;BME280;62290;59.420;17.842;2023-07-29T00:36:08;99928.09;;;24.70;43.58
14293;BME280;62290;59.420;17.842;2023-07-29T00:38:36;99939.06;;;24.69;43.33
14293;BME280;62290;59.420;17.842;2023-07-29T00:41:05;99937.34;;;24.68;43.54
14293;BME280;62290;59.420;17.842;2023-07-29T00:43:34;99932.28;;;24.65;43.42
14293;BME280;62290;59.420;17.842;2023-07-29T00:46:02;99935.16;;;24.63;43.58
14293;BME280;62290;59.420;17.842;2023-07-29T00:48:30;99912.31;;;24.49;43.32
14293;BME280;62290;59.420;17.842;2023-07-29T00:51:00;99935.28;;;24.62;43.60
14293;BME280;62290;59.420;17.842;2023-07-29T00:53:28;99928.53;;;24.58;43.81
14293;BME280;62290;59.420;17.842;2023-07-29T00:55:56;99921.31;;;24.58;43.37
14293;BME280;62290;59.420;17.842;2023-07-29T00:58:24;99918.06;;;24.54;43.27
14293;BME280;62290;59.420;17.842;2023-07-29T01:00:53;99919.06;;;24.53;43.58
14293;BME280;62290;59.420;17.842;2023-07-29T01:03:22;99921.75;;;24.53;43.63
14293;BME280;62290;59.420;17.842;2023-07-29T01:06:05;99919.91;;;24.54;43.54
14293;BME280;62290;59.420;17.842;2023-07-29T01:08:40;99918.25;;;24.53;43.48
14293;BME280;62290;59.420;17.842;2023-07-29T01:11:23;99920.22;;;24.51;43.67
14293;BME280;62290;59.420;17.842;2023-07-29T01:13:58;99920.22;;;24.51;43.54
14293;BME280;62290;59.420;17.842;2023-07-29T01:16:31;99917.72;;;24.49;43.72
14293;BME280;62290;59.420;17.842;2023-07-29T01:19:05;99921.41;;;24.48;43.59
14293;BME280;62290;59.420;17.842;2023-07-29T01:21:37;99887.97;;;24.33;43.82
14293;BME280;62290;59.420;17.842;2023-07-29T01:24:08;99907.25;;;24.46;43.71
14293;BME280;62290;59.420;17.842;2023-07-29T01:26:36;99908.41;;;24.44;43.57
14293;BME280;62290;59.420;17.842;2023-07-29T01:29:04;99909.25;;;24.44;43.67
14293;BME280;62290;59.420;17.842;2023-07-29T01:31:34;99891.53;;;24.34;43.68
14293;BME280;62290;59.420;17.842;2023-07-29T01:34:07;99910.25;;;24.43;43.44
14293;BME280;62290;59.420;17.842;2023-07-29T01:36:39;99906.72;;;24.43;43.85
14293;BME280;62290;59.420;17.842;2023-07-29T01:39:15;99910.44;;;24.42;43.61
14293;BME280;62290;59.420;17.842;2023-07-29T01:41:45;99908.72;;;24.41;43.65
14293;BME280;62290;59.420;17.842;2023-07-29T01:44:14;99901.81;;;24.38;43.63
14293;BME280;62290;59.420;17.842;2023-07-29T01:46:43;99909.75;;;24.40;44.02
14293;BME280;62290;59.420;17.842;2023-07-29T01:49:12;99905.34;;;24.39;43.87
14293;BME280;62290;59.420;17.842;2023-07-29T01:51:39;99904.50;;;24.38;43.73
14293;BME280;62290;59.420;17.842;2023-07-29T01:54:08;99909.38;;;24.35;43.81
14293;BME280;62290;59.420;17.842;2023-07-29T01:56:37;99904.69;;;24.37;43.68
14293;BME280;62290;59.420;17.842;2023-07-29T01:59:05;99912.22;;;24.33;43.92
14293;BME280;62290;59.420;17.842;2023-07-29T02:01:34;99900.59;;;24.33;43.82
14293;BME280;62290;59.420;17.842;2023-07-29T02:04:02;99890.16;;;24.30;43.86
14293;BME280;62290;59.420;17.842;2023-07-29T02:06:31;99892.50;;;24.33;43.68
14293;BME280;62290;59.420;17.842;2023-07-29T02:08:59;99898.06;;;24.31;43.86
14293;BME280;62290;59.420;17.842;2023-07-29T02:11:27;99892.69;;;24.31;43.70
14293;BME280;62290;59.420;17.842;2023-07-29T02:13:57;99901.75;;;24.30;43.83
14293;BME280;62290;59.420;17.842;2023-07-29T02:16:25;99900.94;;;24.30;43.58
14293;BME280;62290;59.420;17.842;2023-07-29T02:18:53;99899.22;;;24.29;43.71
14293;BME280;62290;59.420;17.842;2023-07-29T02:21:23;99905.78;;;24.26;43.60
14293;BME280;62290;59.420;17.842;2023-07-29T02:23:51;99903.09;;;24.26;43.65
14293;BME280;62290;59.420;17.842;2023-07-29T02:26:19;99906.63;;;24.27;43.56
14293;BME280;62290;59.420;17.842;2023-07-29T02:28:47;99908.47;;;24.26;43.67
14293;BME280;62290;59.420;17.842;2023-07-29T02:31:19;99871.94;;;24.06;43.58
14293;BME280;62290;59.420;17.842;2023-07-29T02:33:48;99903.22;;;24.25;43.57
14293;BME280;62290;59.420;17.842;2023-07-29T02:36:16;99903.22;;;24.25;43.63
14293;BME280;62290;59.420;17.842;2023-07-29T02:38:45;99900.69;;;24.23;43.56
14293;BME280;62290;59.420;17.842;2023-07-29T02:41:13;99904.25;;;24.24;43.57
14293;BME280;62290;59.420;17.842;2023-07-29T02:43:43;99907.78;;;24.24;43.65
14293;BME280;62290;59.420;17.842;2023-07-29T02:46:11;99908.78;;;24.23;43.77
14293;BME280;62290;59.420;17.842;2023-07-29T02:48:42;99887.34;;;24.14;43.68
14293;BME280;62290;59.420;17.842;2023-07-29T02:51:10;99894.78;;;24.20;43.72
14293;BME280;62290;59.420;17.842;2023-07-29T02:53:38;99897.16;;;24.23;43.53
14293;BME280;62290;59.420;17.842;2023-07-29T02:56:06;99906.25;;;24.22;43.54
14293;BME280;62290;59.420;17.842;2023-07-29T02:58:36;99901.00;;;24.20;43.50
14293;BME280;62290;59.420;17.842;2023-07-29T03:01:09;99897.47;;;24.20;43.86
14293;BME280;62290;59.420;17.842;2023-07-29T03:03:37;99893.78;;;24.21;43.75
14293;BME280;62290;59.420;17.842;2023-07-29T03:06:09;99894.78;;;24.20;43.80
14293;BME280;62290;59.420;17.842;2023-07-29T03:08:37;99891.41;;;24.18;43.68
14293;BME280;62290;59.420;17.842;2023-07-29T03:11:06;99900.16;;;24.20;43.79
14293;BME280;62290;59.420;17.842;2023-07-29T03:13:35;99885.03;;;24.19;43.77
14293;BME280;62290;59.420;17.842;2023-07-29T03:16:06;99890.25;;;24.20;43.84
14293;BME280;62290;59.420;17.842;2023-07-29T03:18:36;99858.44;;;23.98;43.58
14293;BME280;62290;59.420;17.842;2023-07-29T03:21:05;99895.78;;;24.19;43.84
14293;BME280;62290;59.420;17.842;2023-07-29T03:23:35;99895.78;;;24.19;43.53
14293;BME280;62290;59.420;17.842;2023-07-29T03:26:04;99886.00;;;24.18;43.76
14293;BME280;62290;59.420;17.842;2023-07-29T03:28:38;99892.41;;;24.17;43.61
14293;BME280;62290;59.420;17.842;2023-07-29T03:31:06;99901.19;;;24.19;43.56
14293;BME280;62290;59.420;17.842;2023-07-29T03:33:34;99891.72;;;24.15;43.42
14293;BME280;62290;59.420;17.842;2023-07-29T03:36:03;99902.72;;;24.21;43.36
14293;BME280;62290;59.420;17.842;2023-07-29T03:38:31;99898.19;;;24.22;43.62
14293;BME280;62290;59.420;17.842;2023-07-29T03:41:03;99895.84;;;24.27;43.64
14293;BME280;62290;59.420;17.842;2023-07-29T03:43:31;99899.06;;;24.30;43.39
14293;BME280;62290;59.420;17.842;2023-07-29T03:46:01;99897.75;;;24.34;43.39
14293;BME280;62290;59.420;17.842;2023-07-29T03:48:29;99906.22;;;24.39;43.38
14293;BME280;62290;59.420;17.842;2023-07-29T03:50:58;99900.50;;;24.42;43.00
14293;BME280;62290;59.420;17.842;2023-07-29T03:53:26;99904.41;;;24.48;42.90
14293;BME280;62290;59.420;17.842;2023-07-29T03:55:54;99902.09;;;24.53;43.19
14293;BME280;62290;59.420;17.842;2023-07-29T03:58:24;99901.59;;;24.58;42.95
14293;BME280;62290;59.420;17.842;2023-07-29T04:00:52;99904.84;;;24.61;42.83
14293;BME280;62290;59.420;17.842;2023-07-29T04:03:20;99905.34;;;24.65;42.65
14293;BME280;62290;59.420;17.842;2023-07-29T04:05:51;99903.84;;;24.70;42.23
14293;BME280;62290;59.420;17.842;2023-07-29T04:08:19;99901.69;;;24.74;42.50
14293;BME280;62290;59.420;17.842;2023-07-29T04:10:48;99904.91;;;24.77;42.30
14293;BME280;62290;59.420;17.842;2023-07-29T04:13:16;99896.53;;;24.80;41.96
14293;BME280;62290;59.420;17.842;2023-07-29T04:15:45;99903.31;;;24.84;42.13
14293;BME280;62290;59.420;17.842;2023-07-29T04:18:13;99901.97;;;24.88;41.79
14293;BME280;62290;59.420;17.842;2023-07-29T04:20:43;99906.19;;;24.91;42.11
14293;BME280;62290;59.420;17.842;2023-07-29T04:23:11;99898.63;;;24.94;41.97
14293;BME280;62290;59.420;17.842;2023-07-29T04:25:39;99898.13;;;24.99;41.88
14293;BME280;62290;59.420;17.842;2023-07-29T04:28:07;99894.94;;;25.03;41.77
14293;BME280;62290;59.420;17.842;2023-07-29T04:30:35;99900.88;;;25.07;41.53
14293;BME280;62290;59.420;17.842;2023-07-29T04:33:05;99903.06;;;25.11;41.67
14293;BME280;62290;59.420;17.842;2023-07-29T04:35:33;99908.13;;;25.14;41.32
14293;BME280;62290;59.420;17.842;2023-07-29T04:38:01;99903.94;;;25.20;41.70
14293;BME280;62290;59.420;17.842;2023-07-29T04:40:29;99896.50;;;25.14;41.28
14293;BME280;62290;59.420;17.842;2023-07-29T04:43:00;99899.91;;;25.24;41.45
14293;BME280;62290;59.420;17.842;2023-07-29T04:45:28;99909.03;;;25.31;41.20
14293;BME280;62290;59.420;17.842;2023-07-29T04:47:56;99910.38;;;25.35;41.54
14293;BME280;62290;59.420;17.842;2023-07-29T04:50:26;99904.00;;;25.36;41.17
14293;BME280;62290;59.420;17.842;2023-07-29T04:52:54;99895.06;;;25.36;41.40
14293;BME280;62290;59.420;17.842;2023-07-29T04:55:22;99902.88;;;25.47;41.36
14293;BME280;62290;59.420;17.842;2023-07-29T04:57:50;99907.09;;;25.49;41.05
14293;BME280;62290;59.420;17.842;2023-07-29T05:00:18;99909.28;;;25.54;41.09
14293;BME280;62290;59.420;17.842;2023-07-29T05:02:46;99907.13;;;25.57;41.41
14293;BME280;62290;59.420;17.842;2023-07-29T05:05:14;99916.56;;;25.61;41.46
14293;BME280;62290;59.420;17.842;2023-07-29T05:07:44;99904.59;;;25.64;41.21
14293;BME280;62290;59.420;17.842;2023-07-29T05:10:12;99911.34;;;25.68;41.31
14293;BME280;62290;59.420;17.842;2023-07-29T05:12:40;99906.44;;;25.71;41.14
14293;BME280;62290;59.420;17.842;2023-07-29T05:15:09;99905.28;;;25.74;41.15
14293;BME280;62290;59.420;17.842;2023-07-29T05:17:38;99912.03;;;25.78;41.27
14293;BME280;62290;59.420;17.842;2023-07-29T05:20:07;99912.53;;;25.82;40.70
14293;BME280;62290;59.420;17.842;2023-07-29T05:22:36;99911.34;;;25.84;41.05
14293;BME280;62290;59.420;17.842;2023-07-29T05:25:07;99912.72;;;25.88;40.69
14293;BME280;62290;59.420;17.842;2023-07-29T05:27:35;99916.94;;;25.91;40.63
14293;BME280;62290;59.420;17.842;2023-07-29T05:30:03;99921.16;;;25.93;40.71
14293;BME280;62290;59.420;17.842;2023-07-29T05:32:33;99911.88;;;25.96;40.76
14293;BME280;62290;59.420;17.842;2023-07-29T05:35:01;99911.69;;;25.97;40.86
14293;BME280;62290;59.420;17.842;2023-07-29T05:37:30;99913.91;;;26.02;40.99
14293;BME280;62290;59.420;17.842;2023-07-29T05:39:58;99921.84;;;26.03;40.58
14293;BME280;62290;59.420;17.842;2023-07-29T05:42:28;99917.75;;;26.07;40.43
14293;BME280;62290;59.420;17.842;2023-07-29T05:44:56;99917.63;;;26.09;40.52
14293;BME280;62290;59.420;17.842;2023-07-29T05:47:24;99910.38;;;26.09;40.55
14293;BME280;62290;59.420;17.842;2023-07-29T05:49:52;99919.84;;;26.13;40.76
14293;BME280;62290;59.420;17.842;2023-07-29T05:52:21;99923.91;;;26.17;40.63
14293;BME280;62290;59.420;17.842;2023-07-29T05:54:49;99915.63;;;26.19;40.63
14293;BME280;62290;59.420;17.842;2023-07-29T05:57:17;99909.03;;;26.21;40.51
14293;BME280;62290;59.420;17.842;2023-07-29T05:59:46;99918.47;;;26.25;40.59
14293;BME280;62290;59.420;17.842;2023-07-29T06:02:14;99917.47;;;26.26;40.46
14293;BME280;62290;59.420;17.842;2023-07-29T06:04:42;99917.13;;;26.29;40.50
14293;BME280;62290;59.420;17.842;2023-07-29T06:07:10;99914.25;;;26.31;40.31
14293;BME280;62290;59.420;17.842;2023-07-29T06:09:39;99909.34;;;26.34;40.41
14293;BME280;62290;59.420;17.842;2023-07-29T06:12:08;99910.88;;;26.37;39.85
14293;BME280;62290;59.420;17.842;2023-07-29T06:14:36;99910.69;;;26.38;39.88
14293;BME280;62290;59.420;17.842;2023-07-29T06:17:06;99911.38;;;26.32;40.11
14293;BME280;62290;59.420;17.842;2023-07-29T06:19:34;99920.16;;;26.43;39.92
14293;BME280;62290;59.420;17.842;2023-07-29T06:22:03;99902.59;;;26.38;40.01
14293;BME280;62290;59.420;17.842;2023-07-29T06:24:32;99917.59;;;26.49;40.14
14293;BME280;62290;59.420;17.842;2023-07-29T06:27:00;99914.22;;;26.47;39.69
14293;BME280;62290;59.420;17.842;2023-07-29T06:29:28;99917.25;;;26.52;40.03
14293;BME280;62290;59.420;17.842;2023-07-29T06:31:57;99924.03;;;26.56;39.96
14293;BME280;62290;59.420;17.842;2023-07-29T06:34:27;99924.69;;;26.58;39.59
14293;BME280;62290;59.420;17.842;2023-07-29T06:36:55;99922.84;;;26.59;39.54
14293;BME280;62290;59.420;17.842;2023-07-29T06:39:23;99933.44;;;26.60;39.79
14293;BME280;62290;59.420;17.842;2023-07-29T06:41:51;99930.41;;;26.63;39.54
14293;BME280;62290;59.420;17.842;2023-07-29T06:44:19;99926.72;;;26.64;39.66
14293;BME280;62290;59.420;17.842;2023-07-29T06:46:47;99925.66;;;26.65;39.33
14293;BME280;62290;59.420;17.842;2023-07-29T06:49:15;99934.28;;;26.69;39.39
14293;BME280;62290;59.420;17.842;2023-07-29T06:51:45;99922.28;;;26.71;39.51
14293;BME280;62290;59.420;17.842;2023-07-29T06:54:13;99912.16;;;26.65;39.33
14293;BME280;62290;59.420;17.842;2023-07-29T06:56:41;99925.00;;;26.71;39.61
14293;BME280;62290;59.420;17.842;2023-07-29T06:59:09;99927.16;;;26.76;39.26
14293;BME280;62290;59.420;17.842;2023-07-29T07:01:37;99925.31;;;26.76;39.60
14293;BME280;62290;59.420;17.842;2023-07-29T07:04:05;99922.09;;;26.73;39.55
14293;BME280;62290;59.420;17.842;2023-07-29T07:06:33;99933.97;;;26.80;39.38
14293;BME280;62290;59.420;17.842;2023-07-29T07:09:03;99931.94;;;26.82;38.96
14293;BME280;62290;59.420;17.842;2023-07-29T07:11:31;99921.97;;;26.82;39.33
14293;BME280;62290;59.420;17.842;2023-07-29T07:13:59;99936.28;;;26.83;39.18
14293;BME280;62290;59.420;17.842;2023-07-29T07:16:27;99938.84;;;26.84;38.98
14293;BME280;62290;59.420;17.842;2023-07-29T07:18:57;99935.09;;;26.85;39.10
14293;BME280;62290;59.420;17.842;2023-07-29T07:21:25;99933.09;;;26.87;39.18
14293;BME280;62290;59.420;17.842;2023-07-29T07:23:53;99930.53;;;26.86;39.25
14293;BME280;62290;59.420;17.842;2023-07-29T07:26:22;99913.00;;;26.74;39.30
14293;BME280;62290;59.420;17.842;2023-07-29T07:28:50;99936.47;;;26.89;38.83
14293;BME280;62290;59.420;17.842;2023-07-29T07:31:18;99941.69;;;26.91;38.84
14293;BME280;62290;59.420;17.842;2023-07-29T07:33:46;99945.09;;;26.93;38.80
14293;BME280;62290;59.420;17.842;2023-07-29T07:36:14;99937.97;;;26.92;38.90
14293;BME280;62290;59.420;17.842;2023-07-29T07:38:42;99938.81;;;26.92;39.09
14293;BME280;62290;59.420;17.842;2023-07-29T07:41:10;99926.50;;;26.90;39.04
14293;BME280;62290;59.420;17.842;2023-07-29T07:43:40;99937.44;;;26.96;38.57
14293;BME280;62290;59.420;17.842;2023-07-29T07:46:08;99938.47;;;26.95;38.62
14293;BME280;62290;59.420;17.842;2023-07-29T07:48:38;99932.03;;;26.96;38.54
14293;BME280;62290;59.420;17.842;2023-07-29T07:51:12;99935.41;;;26.98;38.63
14293;BME280;62290;59.420;17.842;2023-07-29T07:53:41;99924.47;;;26.92;38.89
14293;BME280;62290;59.420;17.842;2023-07-29T07:56:09;99930.19;;;26.97;38.35
14293;BME280;62290;59.420;17.842;2023-07-29T07:58:38;99909.44;;;26.89;38.70
14293;BME280;62290;59.420;17.842;2023-07-29T08:01:08;99929.19;;;26.98;38.26
14293;BME280;62290;59.420;17.842;2023-07-29T08:03:37;99921.06;;;26.98;38.21
14293;BME280;62290;59.420;17.842;2023-07-29T08:06:05;99923.75;;;26.98;38.20
14293;BME280;62290;59.420;17.842;2023-07-29T08:08:36;99927.13;;;27.00;38.09
14293;BME280;62290;59.420;17.842;2023-07-29T08:11:04;99927.13;;;27.00;37.81
14293;BME280;62290;59.420;17.842;2023-07-29T08:13:33;99933.38;;;27.01;37.85
14293;BME280;62290;59.420;17.842;2023-07-29T08:16:01;99933.19;;;27.02;37.87
14293;BME280;62290;59.420;17.842;2023-07-29T08:18:30;99932.19;;;27.03;37.97
14293;BME280;62290;59.420;17.842;2023-07-29T08:20:59;99924.09;;;27.03;37.72
14293;BME280;62290;59.420;17.842;2023-07-29T08:23:30;99916.81;;;27.04;37.78
14293;BME280;62290;59.420;17.842;2023-07-29T08:25:59;99919.88;;;27.01;37.95
14293;BME280;62290;59.420;17.842;2023-07-29T08:28:28;99922.56;;;27.01;38.08
14293;BME280;62290;59.420;17.842;2023-07-29T08:30:57;99922.22;;;27.04;38.19
14293;BME280;62290;59.420;17.842;2023-07-29T08:33:25;99917.63;;;27.04;38.30
14293;BME280;62290;59.420;17.842;2023-07-29T08:35:55;99924.75;;;27.05;38.50
14293;BME280;62290;59.420;17.842;2023-07-29T08:38:23;99921.19;;;27.05;38.53
14293;BME280;62290;59.420;17.842;2023-07-29T08:40:59;99913.41;;;27.02;38.60
14293;BME280;62290;59.420;17.842;2023-07-29T08:43:32;99916.81;;;27.04;38.92
14293;BME280;62290;59.420;17.842;2023-07-29T08:46:00;99910.38;;;27.05;38.74
14293;BME280;62290;59.420;17.842;2023-07-29T08:48:32;99922.88;;;27.06;38.93
14293;BME280;62290;59.420;17.842;2023-07-29T08:51:04;99921.19;;;27.05;38.77
14293;BME280;62290;59.420;17.842;2023-07-29T08:53:33;99913.28;;;27.03;38.66
14293;BME280;62290;59.420;17.842;2023-07-29T08:56:02;99915.97;;;27.03;38.72
14293;BME280;62290;59.420;17.842;2023-07-29T08:58:31;99910.56;;;27.03;38.38
14293;BME280;62290;59.420;17.842;2023-07-29T09:01:00;99918.69;;;27.03;38.55
14293;BME280;62290;59.420;17.842;2023-07-29T09:03:28;99917.63;;;27.04;38.32
14293;BME280;62290;59.420;17.842;2023-07-29T09:05:57;99901.75;;;27.01;38.26
14293;BME280;62290;59.420;17.842;2023-07-29T09:08:28;99912.06;;;27.06;38.30
14293;BME280;62290;59.420;17.842;2023-07-29T09:10:56;99914.78;;;27.06;38.26
14293;BME280;62290;59.420;17.842;2023-07-29T09:13:24;99919.16;;;27.07;38.41
14293;BME280;62290;59.420;17.842;2023-07-29T09:15:54;99905.16;;;27.03;38.54
14293;BME280;62290;59.420;17.842;2023-07-29T09:18:23;99922.88;;;27.06;38.74
14293;BME280;62290;59.420;17.842;2023-07-29T09:20:53;99900.97;;;26.92;38.39
14293;BME280;62290;59.420;17.842;2023-07-29T09:23:21;99935.56;;;27.05;38.55
14293;BME280;62290;59.420;17.842;2023-07-29T09:26:00;99922.03;;;27.05;38.15
14293;BME280;62290;59.420;17.842;2023-07-29T09:28:32;99928.47;;;27.04;38.15
14293;BME280;62290;59.420;17.842;2023-07-29T09:31:01;99898.59;;;26.89;37.91
14293;BME280;62290;59.420;17.842;2023-07-29T09:33:32;99924.56;;;27.07;38.11
14293;BME280;62290;59.420;17.842;2023-07-29T09:36:03;99924.56;;;27.07;37.90
14293;BME280;62290;59.420;17.842;2023-07-29T09:38:31;99921.03;;;27.06;37.48
14293;BME280;62290;59.420;17.842;2023-07-29T09:41:00;99928.28;;;27.06;37.40
14293;BME280;62290;59.420;17.842;2023-07-29T09:43:30;99929.31;;;27.05;37.41
14293;BME280;62290;59.420;17.842;2023-07-29T09:46:00;99920.03;;;26.99;37.29
14293;BME280;62290;59.420;17.842;2023-07-29T09:48:32;99924.09;;;27.03;37.23
14293;BME280;62290;59.420;17.842;2023-07-29T09:51:09;99927.44;;;27.05;37.58
14293;BME280;62290;59.420;17.842;2023-07-29T09:53:40;99925.94;;;27.03;37.16
14293;BME280;62290;59.420;17.842;2023-07-29T09:56:14;99910.59;;;26.95;37.47
14293;BME280;62290;59.420;17.842;2023-07-29T09:58:43;99931.50;;;27.01;37.24
14293;BME280;62290;59.420;17.842;2023-07-29T10:01:13;99927.97;;;27.01;37.21
14293;BME280;62290;59.420;17.842;2023-07-29T10:03:42;99926.28;;;27.00;37.35
14293;BME280;62290;59.420;17.842;2023-07-29T10:06:12;99926.28;;;27.00;37.33
14293;BME280;62290;59.420;17.842;2023-07-29T10:08:42;99923.75;;;26.98;37.04
14293;BME280;62290;59.420;17.842;2023-07-29T10:11:11;99921.22;;;26.96;37.38
14293;BME280;62290;59.420;17.842;2023-07-29T10:13:41;99923.25;;;26.94;37.25
14293;BME280;62290;59.420;17.842;2023-07-29T10:16:19;99920.06;;;26.91;37.40
14293;BME280;62290;59.420;17.842;2023-07-29T10:18:48;99926.31;;;26.91;37.46
14293;BME280;62290;59.420;17.842;2023-07-29T10:21:17;99917.34;;;26.91;37.69
14293;BME280;62290;59.420;17.842;2023-07-29T10:23:47;99923.78;;;26.90;37.68
14293;BME280;62290;59.420;17.842;2023-07-29T10:26:19;99920.25;;;26.89;37.53
14293;BME280;62290;59.420;17.842;2023-07-29T10:28:49;99909.44;;;26.89;37.39
14293;BME280;62290;59.420;17.842;2023-07-29T10:31:20;99909.44;;;26.89;37.78
14293;BME280;62290;59.420;17.842;2023-07-29T10:33:50;99909.78;;;26.86;38.14
14293;BME280;62290;59.420;17.842;2023-07-29T10:36:19;99910.44;;;26.88;37.80
14293;BME280;62290;59.420;17.842;2023-07-29T10:38:49;99915.69;;;26.90;38.09
14293;BME280;62290;59.420;17.842;2023-07-29T10:41:17;99919.38;;;26.89;37.96
14293;BME280;62290;59.420;17.842;2023-07-29T10:43:45;99910.63;;;26.87;38.26
14293;BME280;62290;59.420;17.842;2023-07-29T10:46:16;99906.06;;;26.87;38.25
14293;BME280;62290;59.420;17.842;2023-07-29T10:48:52;99908.56;;;26.89;38.50
14293;BME280;62290;59.420;17.842;2023-07-29T10:51:25;99905.03;;;26.88;38.40
14293;BME280;62290;59.420;17.842;2023-07-29T10:53:54;99914.16;;;26.87;38.21
14293;BME280;62290;59.420;17.842;2023-07-29T10:56:30;99902.31;;;26.88;37.97
14293;BME280;62290;59.420;17.842;2023-07-29T10:59:22;99906.06;;;26.87;38.07
14293;BME280;62290;59.420;17.842;2023-07-29T11:01:56;99902.34;;;26.80;38.66
14293;BME280;62290;59.420;17.842;2023-07-29T11:04:25;99903.50;;;26.86;38.34
14293;BME280;62290;59.420;17.842;2023-07-29T11:07:21;99905.22;;;26.87;38.55
14293;BME280;62290;59.420;17.842;2023-07-29T11:10:01;99913.31;;;26.87;38.58
14293;BME280;62290;59.420;17.842;2023-07-29T11:12:37;99910.63;;;26.87;38.31
14293;BME280;62290;59.420;17.842;2023-07-29T11:15:12;99901.34;;;26.81;38.21
14293;BME280;62290;59.420;17.842;2023-07-29T11:17:43;99916.03;;;26.87;38.15
14293;BME280;62290;59.420;17.842;2023-07-29T11:20:12;99911.47;;;26.87;38.03
14293;BME280;62290;59.420;17.842;2023-07-29T11:22:41;99910.63;;;26.87;37.61
14293;BME280;62290;59.420;17.842;2023-07-29T11:25:10;99914.16;;;26.87;37.69
14293;BME280;62290;59.420;17.842;2023-07-29T11:27:39;99922.28;;;26.87;37.59
14293;BME280;62290;59.420;17.842;2023-07-29T11:30:09;99915.84;;;26.88;36.98
14293;BME280;62290;59.420;17.842;2023-07-29T11:32:39;99919.38;;;26.89;36.42
14293;BME280;62290;59.420;17.842;2023-07-29T11:35:10;99922.28;;;26.87;36.19
14293;BME280;62290;59.420;17.842;2023-07-29T11:37:39;99918.53;;;26.88;35.61
14293;BME280;62290;59.420;17.842;2023-07-29T11:40:08;99921.25;;;26.88;35.73
14293;BME280;62290;59.420;17.842;2023-07-29T11:42:37;99915.38;;;26.85;36.12
14293;BME280;62290;59.420;17.842;2023-07-29T11:45:07;99918.72;;;26.87;35.73
14293;BME280;62290;59.420;17.842;2023-07-29T11:47:36;99919.72;;;26.86;35.35
14293;BME280;62290;59.420;17.842;2023-07-29T11:50:06;99916.19;;;26.85;34.89
14293;BME280;62290;59.420;17.842;2023-07-29T11:52:37;99916.91;;;26.79;35.01
14293;BME280;62290;59.420;17.842;2023-07-29T11:55:07;99919.72;;;26.86;34.86
14293;BME280;62290;59.420;17.842;2023-07-29T11:57:37;99910.63;;;26.87;34.50
14293;BME280;62290;59.420;17.842;2023-07-29T12:00:07;99919.72;;;26.86;34.79
14293;BME280;62290;59.420;17.842;2023-07-29T12:02:38;99921.44;;;26.87;34.92
14293;BME280;62290;59.420;17.842;2023-07-29T12:05:08;99930.22;;;26.89;34.68
14293;BME280;62290;59.420;17.842;2023-07-29T12:07:39;99921.94;;;26.90;34.63
14293;BME280;62290;59.420;17.842;2023-07-29T12:10:09;99924.63;;;26.90;34.51
14293;BME280;62290;59.420;17.842;2023-07-29T12:12:43;99926.31;;;26.91;34.37
14293;BME280;62290;59.420;17.842;2023-07-29T12:15:12;99927.34;;;26.90;34.13
14293;BME280;62290;59.420;17.842;2023-07-29T12:17:40;99928.16;;;26.91;34.01
14293;BME280;62290;59.420;17.842;2023-07-29T12:20:10;99918.22;;;26.83;33.71
14293;BME280;62290;59.420;17.842;2023-07-29T12:22:39;99926.66;;;26.88;33.41
14293;BME280;62290;59.420;17.842;2023-07-29T12:25:08;99929.34;;;26.88;33.56
14293;BME280;62290;59.420;17.842;2023-07-29T12:27:36;99927.69;;;26.87;32.86
14293;BME280;62290;59.420;17.842;2023-07-29T12:30:06;99921.44;;;26.87;32.88
14293;BME280;62290;59.420;17.842;2023-07-29T12:32:43;99900.84;;;26.78;33.10
14293;BME280;62290;59.420;17.842;2023-07-29T12:35:11;99894.41;;;26.71;33.41
14293;BME280;62290;59.420;17.842;2023-07-29T12:37:41;99917.88;;;26.86;33.23
14293;BME280;62290;59.420;17.842;2023-07-29T12:40:21;99903.19;;;26.81;32.74
14293;BME280;62290;59.420;17.842;2023-07-29T12:42:51;99915.69;;;26.90;33.13
14293;BME280;62290;59.420;17.842;2023-07-29T12:45:19;99908.56;;;26.89;32.81
14293;BME280;62290;59.420;17.842;2023-07-29T12:47:50;99917.34;;;26.91;33.03
14293;BME280;62290;59.420;17.842;2023-07-29T12:50:18;99912.78;;;26.91;32.76
14293;BME280;62290;59.420;17.842;2023-07-29T12:52:48;99908.91;;;26.94;32.93
14293;BME280;62290;59.420;17.842;2023-07-29T12:55:16;99908.03;;;26.93;32.83
14293;BME280;62290;59.420;17.842;2023-07-29T12:57:49;99910.75;;;26.93;32.83
14293;BME280;62290;59.420;17.842;2023-07-29T13:00:18;99912.44;;;26.94;33.00
14293;BME280;62290;59.420;17.842;2023-07-29T13:02:46;99898.41;;;26.91;32.77